createdAt,value
2017-08-12T00:01:03.331Z,974.39
2017-08-12T00:02:13.291Z,974.36
2017-08-12T00:03:23.566Z,974.38
2017-08-12T00:04:33.529Z,974.4
2017-08-12T00:05:43.487Z,974.34
2017-08-12T00:06:53.131Z,974.26
2017-08-12T00:08:03.088Z,974.25
2017-08-12T00:09:13.056Z,974.22
2017-08-12T00:10:23.325Z,974.19
2017-08-12T00:11:33.282Z,974.23
2017-08-12T00:12:43.553Z,974.24
2017-08-12T00:13:53.510Z,974.27
2017-08-12T00:15:03.781Z,974.3
2017-08-12T00:16:14.053Z,974.29
2017-08-12T00:17:24.324Z,974.27
2017-08-12T00:18:34.283Z,974.28
2017-08-12T00:19:44.557Z,974.26
2017-08-12T00:20:54.828Z,974.25
2017-08-12T00:22:04.787Z,974.27
2017-08-12T00:23:14.743Z,974.24
2017-08-12T00:24:25.013Z,974.25
2017-08-12T00:25:34.970Z,974.29
2017-08-12T00:26:45.238Z,974.28
2017-08-12T00:27:55.509Z,974.3
2017-08-12T00:29:05.468Z,974.28
2017-08-12T00:30:15.426Z,974.3
2017-08-12T00:31:25.696Z,974.32
2017-08-12T00:32:35.965Z,974.31
2017-08-12T00:33:45.614Z,974.3
2017-08-12T00:34:55.885Z,974.32
2017-08-12T00:36:06.168Z,974.28
2017-08-12T00:37:16.441Z,974.25
2017-08-12T00:38:26.713Z,974.25
2017-08-12T00:39:36.670Z,974.3
2017-08-12T00:40:46.626Z,974.32
2017-08-12T00:41:56.277Z,974.32
2017-08-12T00:43:06.546Z,974.32
2017-08-12T00:44:16.504Z,974.31
2017-08-12T00:45:26.775Z,974.3
2017-08-12T00:46:36.733Z,974.31
2017-08-12T00:47:47.013Z,974.29
2017-08-12T00:48:57.285Z,974.24
2017-08-12T00:50:07.554Z,974.2
2017-08-12T00:51:17.824Z,974.26
2017-08-12T00:52:27.794Z,974.33
2017-08-12T00:53:38.065Z,974.36
2017-08-12T00:54:48.334Z,974.38
2017-08-12T00:55:58.605Z,974.35
2017-08-12T00:57:08.562Z,974.39
2017-08-12T00:58:18.833Z,974.46
2017-08-12T00:59:29.105Z,974.52
2017-08-12T01:00:38.479Z,974.54
2017-08-12T01:01:48.438Z,974.52
2017-08-12T01:02:58.394Z,974.53
2017-08-12T01:04:08.040Z,974.46
2017-08-12T01:05:17.680Z,974.46
2017-08-12T01:06:27.958Z,974.43
2017-08-12T01:07:37.916Z,974.45
2017-08-12T01:08:48.184Z,974.51
2017-08-12T01:09:58.138Z,974.51
2017-08-12T01:11:08.096Z,974.5
2017-08-12T01:12:17.736Z,974.48
2017-08-12T01:13:28.009Z,974.54
2017-08-12T01:14:37.989Z,974.52
2017-08-12T01:15:48.298Z,974.56
2017-08-12T01:16:58.575Z,974.53
2017-08-12T01:18:08.216Z,974.47
2017-08-12T01:19:17.859Z,974.41
2017-08-12T01:20:27.819Z,974.38
2017-08-12T01:21:38.091Z,974.37
2017-08-12T01:22:48.359Z,974.4
2017-08-12T01:23:58.325Z,974.45
2017-08-12T01:25:08.600Z,974.54
2017-08-12T01:26:18.878Z,974.58
2017-08-12T01:27:28.837Z,974.65
2017-08-12T01:28:39.108Z,974.68
2017-08-12T01:29:49.381Z,974.7
2017-08-12T01:30:59.336Z,974.68
2017-08-12T01:32:09.295Z,974.66
2017-08-12T01:33:19.594Z,974.69
2017-08-12T01:34:29.234Z,974.65
2017-08-12T01:35:39.505Z,974.62
2017-08-12T01:36:49.778Z,974.68
2017-08-12T01:38:00.053Z,974.65
2017-08-12T01:39:10.326Z,974.67
2017-08-12T01:40:20.287Z,974.68
2017-08-12T01:41:30.563Z,974.61
2017-08-12T01:42:40.526Z,974.59
2017-08-12T01:43:50.799Z,974.57
2017-08-12T01:45:01.071Z,974.54
2017-08-12T01:46:11.351Z,974.53
2017-08-12T01:47:21.309Z,974.52
2017-08-12T01:48:31.585Z,974.51
2017-08-12T01:49:41.857Z,974.53
2017-08-12T01:50:52.133Z,974.53
2017-08-12T01:52:02.406Z,974.58
2017-08-12T01:53:12.363Z,974.55
2017-08-12T01:54:22.325Z,974.53
2017-08-12T01:55:32.598Z,974.53
2017-08-12T01:56:42.586Z,974.5
2017-08-12T01:57:52.860Z,974.54
2017-08-12T01:59:03.134Z,974.48
2017-08-12T02:00:13.093Z,974.5
2017-08-12T02:01:22.739Z,974.49
2017-08-12T02:02:32.703Z,974.46
2017-08-12T02:03:42.659Z,974.48
2017-08-12T02:04:52.953Z,974.51
2017-08-12T02:06:03.230Z,974.5
2017-08-12T02:07:12.874Z,974.44
2017-08-12T02:08:22.833Z,974.45
2017-08-12T02:09:32.476Z,974.45
2017-08-12T02:10:42.434Z,974.46
2017-08-12T02:11:52.704Z,974.46
2017-08-12T02:13:02.660Z,974.47
2017-08-12T02:14:13.032Z,974.45
2017-08-12T02:15:22.358Z,974.46
2017-08-12T02:16:32.631Z,974.47
2017-08-12T02:17:42.271Z,974.39
2017-08-12T02:18:52.543Z,974.38
2017-08-12T02:20:02.841Z,974.35
2017-08-12T02:21:13.118Z,974.31
2017-08-12T02:22:23.387Z,974.33
2017-08-12T02:23:33.657Z,974.26
2017-08-12T02:24:43.926Z,974.2
2017-08-12T02:25:53.885Z,974.17
2017-08-12T02:27:04.155Z,974.15
2017-08-12T02:28:14.110Z,974.13
2017-08-12T02:29:24.378Z,974.11
2017-08-12T02:30:34.653Z,974.13
2017-08-12T02:31:44.929Z,974.1
2017-08-12T02:32:55.206Z,974.08
2017-08-12T02:34:05.477Z,974.14
2017-08-12T02:35:15.755Z,974.06
2017-08-12T02:36:25.710Z,974.09
2017-08-12T02:37:35.669Z,974.04
2017-08-12T02:38:45.944Z,974.02
2017-08-12T02:39:55.592Z,973.96
2017-08-12T02:41:05.552Z,973.93
2017-08-12T02:42:15.825Z,973.87
2017-08-12T02:43:25.476Z,973.89
2017-08-12T02:44:35.434Z,973.87
2017-08-12T02:45:45.710Z,973.85
2017-08-12T02:46:55.983Z,973.81
2017-08-12T02:48:05.936Z,973.76
2017-08-12T02:49:15.898Z,973.74
2017-08-12T02:50:26.179Z,973.74
2017-08-12T02:51:36.459Z,973.68
2017-08-12T02:52:46.106Z,973.68
2017-08-12T02:53:56.067Z,973.69
2017-08-12T02:55:06.378Z,973.64
2017-08-12T02:56:16.334Z,973.65
2017-08-12T02:57:26.612Z,973.66
2017-08-12T02:58:36.881Z,973.65
2017-08-12T02:59:46.844Z,973.74
2017-08-12T03:00:57.117Z,973.77
2017-08-12T03:02:07.389Z,973.79
2017-08-12T03:03:17.351Z,973.84
2017-08-12T03:04:27.626Z,973.84
2017-08-12T03:05:37.587Z,973.87
2017-08-12T03:06:47.546Z,973.87
2017-08-12T03:07:57.504Z,973.84
2017-08-12T03:09:07.778Z,973.83
2017-08-12T03:10:18.070Z,973.73
2017-08-12T03:11:28.347Z,973.71
2017-08-12T03:12:38.617Z,973.69
2017-08-12T03:13:48.889Z,973.74
2017-08-12T03:14:59.160Z,973.75
2017-08-12T03:16:09.113Z,973.77
2017-08-12T03:17:19.068Z,973.81
2017-08-12T03:18:29.024Z,973.84
2017-08-12T03:19:39.295Z,973.81
2017-08-12T03:20:49.567Z,973.76
2017-08-12T03:21:59.866Z,973.75
2017-08-12T03:23:10.137Z,973.71
2017-08-12T03:24:19.779Z,973.67
2017-08-12T03:25:29.420Z,973.63
2017-08-12T03:26:39.378Z,973.64
2017-08-12T03:27:49.646Z,973.63
2017-08-12T03:28:59.600Z,973.63
2017-08-12T03:30:09.871Z,973.65
2017-08-12T03:31:19.836Z,973.63
2017-08-12T03:32:30.116Z,973.63
2017-08-12T03:33:40.073Z,973.6
2017-08-12T03:34:50.027Z,973.66
2017-08-12T03:36:00.300Z,973.69
2017-08-12T03:37:10.254Z,973.71
2017-08-12T03:38:20.528Z,973.66
2017-08-12T03:39:30.484Z,973.65
2017-08-12T03:40:40.756Z,973.69
2017-08-12T03:41:50.710Z,973.65
2017-08-12T03:43:00.983Z,973.66
2017-08-12T03:44:10.939Z,973.61
2017-08-12T03:45:21.213Z,973.63
2017-08-12T03:46:31.500Z,973.59
2017-08-12T03:47:41.775Z,973.58
2017-08-12T03:48:52.046Z,973.61
2017-08-12T03:50:02.010Z,973.57
2017-08-12T03:51:11.656Z,973.59
2017-08-12T03:52:21.927Z,973.55
2017-08-12T03:53:31.573Z,973.52
2017-08-12T03:54:41.846Z,973.53
2017-08-12T03:55:51.804Z,973.51
2017-08-12T03:57:02.077Z,973.46
2017-08-12T03:58:12.036Z,973.46
2017-08-12T03:59:21.990Z,973.44
2017-08-12T04:00:32.271Z,973.48
2017-08-12T04:01:42.537Z,973.47
2017-08-12T04:02:52.496Z,973.44
2017-08-12T04:04:02.767Z,973.47
2017-08-12T04:05:13.043Z,973.51
2017-08-12T04:06:22.702Z,973.55
2017-08-12T04:07:32.657Z,973.56
2017-08-12T04:08:42.302Z,973.61
2017-08-12T04:09:52.262Z,973.61
2017-08-12T04:11:02.219Z,973.58
2017-08-12T04:12:12.496Z,973.57
2017-08-12T04:13:22.771Z,973.55
2017-08-12T04:14:33.042Z,973.57
2017-08-12T04:15:43.310Z,973.52
2017-08-12T04:16:53.582Z,973.52
2017-08-12T04:18:03.853Z,973.53
2017-08-12T04:19:14.128Z,973.49
2017-08-12T04:20:24.409Z,973.54
2017-08-12T04:21:34.365Z,973.54
2017-08-12T04:22:44.644Z,973.51
2017-08-12T04:23:54.602Z,973.51
2017-08-12T04:25:04.564Z,973.52
2017-08-12T04:26:14.531Z,973.49
2017-08-12T04:27:24.805Z,973.41
2017-08-12T04:28:35.108Z,973.35
2017-08-12T04:29:45.376Z,973.32
2017-08-12T04:30:55.648Z,973.32
2017-08-12T04:32:05.921Z,973.33
2017-08-12T04:33:15.880Z,973.3
2017-08-12T04:34:25.832Z,973.27
2017-08-12T04:35:35.477Z,973.24
2017-08-12T04:36:45.757Z,973.24
2017-08-12T04:37:55.714Z,973.23
2017-08-12T04:39:05.985Z,973.23
2017-08-12T04:40:15.625Z,973.26
2017-08-12T04:41:25.587Z,973.25
2017-08-12T04:42:35.866Z,973.27
2017-08-12T04:43:46.143Z,973.31
2017-08-12T04:44:56.099Z,973.32
2017-08-12T04:46:06.370Z,973.37
2017-08-12T04:47:16.646Z,973.38
2017-08-12T04:48:26.918Z,973.3
2017-08-12T04:49:36.882Z,973.25
2017-08-12T04:50:47.151Z,973.23
2017-08-12T04:51:57.107Z,973.27
2017-08-12T04:53:07.073Z,973.26
2017-08-12T04:54:17.028Z,973.28
2017-08-12T04:55:27.319Z,973.32
2017-08-12T04:56:36.965Z,973.29
2017-08-12T04:57:47.240Z,973.25
2017-08-12T04:58:57.204Z,973.21
2017-08-12T05:00:07.476Z,973.26
2017-08-12T05:01:17.123Z,973.27
2017-08-12T05:02:27.402Z,973.32
2017-08-12T05:03:37.053Z,973.3
2017-08-12T05:04:47.014Z,973.32
2017-08-12T05:05:57.287Z,973.35
2017-08-12T05:07:07.561Z,973.33
2017-08-12T05:08:17.834Z,973.35
2017-08-12T05:09:27.793Z,973.27
2017-08-12T05:10:38.066Z,973.24
2017-08-12T05:11:48.023Z,973.2
2017-08-12T05:12:57.981Z,973.26
2017-08-12T05:14:08.254Z,973.2
2017-08-12T05:15:18.210Z,973.19
2017-08-12T05:16:28.487Z,973.14
2017-08-12T05:17:38.454Z,973.12
2017-08-12T05:18:48.734Z,973.12
2017-08-12T05:19:59.006Z,973.1
2017-08-12T05:21:09.280Z,973.09
2017-08-12T05:22:19.556Z,973.11
2017-08-12T05:23:29.515Z,973.07
2017-08-12T05:24:39.792Z,973.09
2017-08-12T05:25:50.067Z,973.13
2017-08-12T05:27:00.337Z,973.12
2017-08-12T05:28:10.293Z,973.11
2017-08-12T05:29:20.258Z,973.12
2017-08-12T05:30:30.531Z,973.07
2017-08-12T05:31:40.809Z,973.06
2017-08-12T05:32:51.083Z,973.09
2017-08-12T05:34:01.377Z,973.09
2017-08-12T05:35:11.391Z,973.09
2017-08-12T05:36:21.663Z,973.13
2017-08-12T05:37:31.939Z,973.14
2017-08-12T05:38:42.248Z,973.12
2017-08-12T05:39:52.521Z,973.17
2017-08-12T05:41:02.487Z,973.15
2017-08-12T05:42:12.777Z,973.21
2017-08-12T05:43:23.065Z,973.14
2017-08-12T05:44:33.344Z,973.11
2017-08-12T05:45:43.302Z,973.13
2017-08-12T05:46:53.577Z,973.11
2017-08-12T05:48:03.540Z,973.14
2017-08-12T05:49:13.821Z,973.15
2017-08-12T05:50:24.094Z,973.1
2017-08-12T05:51:34.366Z,973.14
2017-08-12T05:52:44.640Z,973.09
2017-08-12T05:53:54.912Z,973.07
2017-08-12T05:55:04.877Z,973.04
2017-08-12T05:56:15.150Z,973.04
2017-08-12T05:57:25.117Z,973.08
2017-08-12T05:58:35.407Z,973.04
2017-08-12T05:59:45.706Z,973.05
2017-08-12T06:00:55.664Z,973.08
2017-08-12T06:02:05.939Z,973.07
2017-08-12T06:03:15.594Z,973.03
2017-08-12T06:04:25.560Z,973.04
2017-08-12T06:05:35.866Z,973.09
2017-08-12T06:06:46.140Z,973.13
2017-08-12T06:07:56.098Z,973.1
2017-08-12T06:09:06.056Z,973.1
2017-08-12T06:10:16.328Z,973.07
2017-08-12T06:11:26.606Z,973.03
2017-08-12T06:12:36.566Z,973.05
2017-08-12T06:13:46.836Z,973.09
2017-08-12T06:14:57.107Z,973.05
2017-08-12T06:16:06.754Z,973.11
2017-08-12T06:17:16.396Z,973.04
2017-08-12T06:18:26.669Z,973.05
2017-08-12T06:19:36.941Z,972.98
2017-08-12T06:20:47.228Z,972.97
2017-08-12T06:21:57.502Z,972.98
2017-08-12T06:23:07.778Z,973.01
2017-08-12T06:24:18.086Z,973.02
2017-08-12T06:25:28.045Z,973.04
2017-08-12T06:26:38.006Z,973.01
2017-08-12T06:27:48.284Z,973.05
2017-08-12T06:28:58.588Z,973.06
2017-08-12T06:30:08.861Z,973.06
2017-08-12T06:31:19.147Z,973.08
2017-08-12T06:32:29.103Z,973.02
2017-08-12T06:33:38.749Z,973.02
2017-08-12T06:34:49.020Z,973.02
2017-08-12T06:35:59.295Z,973
2017-08-12T06:37:09.257Z,972.96
2017-08-12T06:38:19.535Z,972.98
2017-08-12T06:39:29.811Z,972.95
2017-08-12T06:40:39.777Z,972.97
2017-08-12T06:41:49.737Z,972.91
2017-08-12T06:43:00.016Z,972.95
2017-08-12T06:44:09.976Z,972.97
2017-08-12T06:45:19.942Z,972.99
2017-08-12T06:46:30.220Z,972.99
2017-08-12T06:47:40.498Z,972.96
2017-08-12T06:48:50.772Z,973.02
2017-08-12T06:50:01.051Z,973.07
2017-08-12T06:51:11.334Z,973.05
2017-08-12T06:52:21.607Z,973.09
2017-08-12T06:53:31.880Z,973.13
2017-08-12T06:54:41.527Z,973.12
2017-08-12T06:55:51.804Z,973.1
2017-08-12T06:57:02.077Z,973.09
2017-08-12T06:58:12.361Z,973.06
2017-08-12T06:59:22.009Z,973.06
2017-08-12T07:00:31.971Z,973.07
2017-08-12T07:01:41.618Z,973.1
2017-08-12T07:02:51.892Z,973.14
2017-08-12T07:04:02.169Z,973.15
2017-08-12T07:05:12.458Z,973.16
2017-08-12T07:06:22.737Z,973.23
2017-08-12T07:07:32.384Z,973.27
2017-08-12T07:08:42.658Z,973.28
2017-08-12T07:09:52.933Z,973.33
2017-08-12T07:11:02.897Z,973.3
2017-08-12T07:12:12.548Z,973.32
2017-08-12T07:13:22.222Z,973.38
2017-08-12T07:14:32.503Z,973.4
2017-08-12T07:15:42.466Z,973.38
2017-08-12T07:16:52.424Z,973.43
2017-08-12T07:18:02.701Z,973.37
2017-08-12T07:19:12.976Z,973.39
2017-08-12T07:20:23.251Z,973.41
2017-08-12T07:21:33.219Z,973.39
2017-08-12T07:22:43.497Z,973.43
2017-08-12T07:23:53.459Z,973.4
2017-08-12T07:25:03.734Z,973.45
2017-08-12T07:26:13.380Z,973.35
2017-08-12T07:27:23.028Z,973.35
2017-08-12T07:28:33.302Z,973.33
2017-08-12T07:29:43.265Z,973.34
2017-08-12T07:30:53.544Z,973.3
2017-08-12T07:32:03.198Z,973.33
2017-08-12T07:33:13.478Z,973.32
2017-08-12T07:34:23.762Z,973.32
2017-08-12T07:35:33.723Z,973.32
2017-08-12T07:36:44.001Z,973.29
2017-08-12T07:37:53.960Z,973.31
2017-08-12T07:39:04.239Z,973.29
2017-08-12T07:40:14.516Z,973.22
2017-08-12T07:41:24.475Z,973.23
2017-08-12T07:42:34.443Z,973.19
2017-08-12T07:43:44.415Z,973.16
2017-08-12T07:44:54.694Z,973.22
2017-08-12T07:46:04.659Z,973.2
2017-08-12T07:47:14.622Z,973.21
2017-08-12T07:48:24.591Z,973.13
2017-08-12T07:49:34.868Z,973.17
2017-08-12T07:50:44.831Z,973.19
2017-08-12T07:51:54.796Z,973.16
2017-08-12T07:53:04.772Z,973.18
2017-08-12T07:54:14.738Z,973.17
2017-08-12T07:55:24.705Z,973.15
2017-08-12T07:56:34.983Z,973.17
2017-08-12T07:57:44.636Z,973.18
2017-08-12T07:58:54.596Z,973.18
2017-08-12T08:00:04.874Z,973.21
2017-08-12T08:01:14.850Z,973.2
2017-08-12T08:02:25.161Z,973.23
2017-08-12T08:03:35.126Z,973.25
2017-08-12T08:04:45.089Z,973.3
2017-08-12T08:05:55.367Z,973.29
2017-08-12T08:07:05.012Z,973.31
2017-08-12T08:08:15.291Z,973.27
2017-08-12T08:09:25.568Z,973.31
2017-08-12T08:10:35.844Z,973.35
2017-08-12T08:11:46.129Z,973.32
2017-08-12T08:12:56.410Z,973.31
2017-08-12T08:14:06.695Z,973.27
2017-08-12T08:15:16.976Z,973.25
2017-08-12T08:16:26.624Z,973.24
2017-08-12T08:17:36.907Z,973.24
2017-08-12T08:18:46.561Z,973.21
2017-08-12T08:19:56.524Z,973.26
2017-08-12T08:21:06.488Z,973.21
2017-08-12T08:22:16.769Z,973.19
2017-08-12T08:23:26.733Z,973.18
2017-08-12T08:24:37.020Z,973.17
2017-08-12T08:25:47.296Z,973.11
2017-08-12T08:26:57.263Z,973.07
2017-08-12T08:28:07.543Z,973.03
2017-08-12T08:29:17.823Z,973.06
2017-08-12T08:30:27.789Z,973.05
2017-08-12T08:31:38.063Z,973.07
2017-08-12T08:32:48.027Z,973.04
2017-08-12T08:33:57.993Z,973.04
2017-08-12T08:35:07.974Z,973.08
2017-08-12T08:36:18.257Z,973
2017-08-12T08:37:28.220Z,972.97
2017-08-12T08:38:38.498Z,972.99
2017-08-12T08:39:48.778Z,972.97
2017-08-12T08:40:59.061Z,973.01
2017-08-12T08:42:09.028Z,973.01
2017-08-12T08:43:18.361Z,973.01
2017-08-12T08:44:28.327Z,973.03
2017-08-12T08:45:38.607Z,973.07
2017-08-12T08:46:48.886Z,973.05
2017-08-12T08:47:59.167Z,973.09
2017-08-12T08:49:08.816Z,973.05
2017-08-12T08:50:19.094Z,973.06
2017-08-12T08:51:28.740Z,973.07
2017-08-12T08:52:39.023Z,973.07
2017-08-12T08:53:49.000Z,973.04
2017-08-12T08:54:59.276Z,973.07
2017-08-12T08:56:09.556Z,973.02
2017-08-12T08:57:19.521Z,973.04
2017-08-12T08:58:29.795Z,973.04
2017-08-12T08:59:39.753Z,973
2017-08-12T09:00:49.718Z,972.98
2017-08-12T09:01:59.681Z,973
2017-08-12T09:03:09.642Z,972.96
2017-08-12T09:04:19.924Z,972.99
2017-08-12T09:05:30.201Z,972.92
2017-08-12T09:06:40.161Z,972.93
2017-08-12T09:07:50.440Z,972.91
2017-08-12T09:09:00.399Z,972.91
2017-08-12T09:10:10.675Z,972.88
2017-08-12T09:11:20.322Z,972.9
2017-08-12T09:12:30.603Z,972.88
2017-08-12T09:13:40.882Z,972.9
2017-08-12T09:14:51.157Z,972.85
2017-08-12T09:16:01.118Z,972.83
2017-08-12T09:17:11.400Z,972.83
2017-08-12T09:18:21.061Z,972.86
2017-08-12T09:19:31.337Z,972.87
2017-08-12T09:20:41.615Z,972.89
2017-08-12T09:21:51.924Z,972.91
2017-08-12T09:23:01.889Z,972.93
2017-08-12T09:24:12.172Z,972.94
2017-08-12T09:25:22.134Z,972.96
2017-08-12T09:26:32.414Z,972.98
2017-08-12T09:27:42.695Z,972.98
2017-08-12T09:28:52.658Z,972.95
2017-08-12T09:30:02.938Z,972.97
2017-08-12T09:31:13.214Z,972.99
2017-08-12T09:32:23.174Z,973
2017-08-12T09:33:33.452Z,972.99
2017-08-12T09:34:43.414Z,973.02
2017-08-12T09:35:53.689Z,973.02
2017-08-12T09:37:03.337Z,972.97
2017-08-12T09:38:13.657Z,973
2017-08-12T09:39:23.626Z,972.96
2017-08-12T09:40:33.901Z,972.98
2017-08-12T09:41:43.866Z,972.99
2017-08-12T09:42:53.828Z,973
2017-08-12T09:44:04.107Z,973.03
2017-08-12T09:45:14.384Z,973.01
2017-08-12T09:46:24.659Z,973.04
2017-08-12T09:47:34.942Z,973.05
2017-08-12T09:48:45.222Z,973.03
2017-08-12T09:49:55.184Z,973.03
2017-08-12T09:51:05.470Z,973.03
2017-08-12T09:52:15.748Z,973.04
2017-08-12T09:53:26.025Z,973.11
2017-08-12T09:54:35.988Z,973.08
2017-08-12T09:55:46.268Z,973.1
2017-08-12T09:56:56.230Z,973.09
2017-08-12T09:58:06.192Z,973.11
2017-08-12T09:59:16.467Z,973.12
2017-08-12T10:00:26.742Z,973.12
2017-08-12T10:01:37.025Z,973.1
2017-08-12T10:02:47.306Z,973.08
2017-08-12T10:03:57.583Z,973.05
2017-08-12T10:05:07.549Z,973.1
2017-08-12T10:06:17.830Z,973.12
2017-08-12T10:07:27.793Z,973.11
2017-08-12T10:08:38.080Z,973.1
2017-08-12T10:09:47.728Z,973.03
2017-08-12T10:10:58.006Z,973.01
2017-08-12T10:12:07.971Z,972.98
2017-08-12T10:13:17.619Z,972.98
2017-08-12T10:14:27.583Z,973.08
2017-08-12T10:15:37.550Z,973.03
2017-08-12T10:16:47.830Z,973.06
2017-08-12T10:17:58.106Z,973.1
2017-08-12T10:19:08.409Z,973.05
2017-08-12T10:20:18.377Z,973.08
2017-08-12T10:21:28.660Z,973.05
2017-08-12T10:22:38.942Z,973.02
2017-08-12T10:23:48.904Z,973.05
2017-08-12T10:24:59.183Z,973.03
2017-08-12T10:26:09.463Z,973.03
2017-08-12T10:27:19.432Z,972.96
2017-08-12T10:28:29.709Z,972.96
2017-08-12T10:29:39.992Z,972.97
2017-08-12T10:30:50.369Z,972.96
2017-08-12T10:32:00.646Z,972.96
2017-08-12T10:33:10.297Z,972.87
2017-08-12T10:34:20.264Z,972.89
2017-08-12T10:35:30.543Z,972.9
2017-08-12T10:36:40.506Z,972.85
2017-08-12T10:37:50.153Z,972.87
2017-08-12T10:39:00.436Z,972.86
2017-08-12T10:40:10.082Z,972.89
2017-08-12T10:41:20.386Z,972.89
2017-08-12T10:42:30.349Z,972.81
2017-08-12T10:43:40.312Z,972.83
2017-08-12T10:44:50.588Z,972.83
2017-08-12T10:46:00.551Z,972.82
2017-08-12T10:47:10.831Z,972.81
2017-08-12T10:48:20.796Z,972.75
2017-08-12T10:49:30.447Z,972.77
2017-08-12T10:50:40.409Z,972.8
2017-08-12T10:51:50.061Z,972.8
2017-08-12T10:53:00.025Z,972.81
2017-08-12T10:54:10.307Z,972.86
2017-08-12T10:55:20.585Z,972.83
2017-08-12T10:56:30.548Z,972.81
2017-08-12T10:57:40.516Z,972.81
2017-08-12T10:58:50.793Z,972.77
2017-08-12T11:00:01.100Z,972.82
2017-08-12T11:01:11.078Z,972.78
2017-08-12T11:02:21.046Z,972.8
2017-08-12T11:03:31.012Z,972.77
2017-08-12T11:04:40.980Z,972.78
2017-08-12T11:05:51.257Z,972.76
2017-08-12T11:07:01.533Z,972.79
2017-08-12T11:08:11.812Z,972.77
2017-08-12T11:09:22.093Z,972.82
2017-08-12T11:10:32.062Z,972.82
2017-08-12T11:11:42.384Z,972.77
2017-08-12T11:12:52.669Z,972.78
2017-08-12T11:14:02.948Z,972.78
2017-08-12T11:15:12.914Z,972.74
2017-08-12T11:16:23.190Z,972.75
2017-08-12T11:17:33.154Z,972.74
2017-08-12T11:18:43.115Z,972.76
2017-08-12T11:19:53.078Z,972.76
2017-08-12T11:21:03.356Z,972.77
2017-08-12T11:22:13.642Z,972.72
2017-08-12T11:23:23.291Z,972.74
2017-08-12T11:24:33.257Z,972.73
2017-08-12T11:25:43.223Z,972.75
2017-08-12T11:26:53.502Z,972.76
2017-08-12T11:28:03.468Z,972.69
2017-08-12T11:29:13.746Z,972.68
2017-08-12T11:30:23.715Z,972.72
2017-08-12T11:31:33.682Z,972.74
2017-08-12T11:32:43.963Z,972.78
2017-08-12T11:33:54.244Z,972.78
2017-08-12T11:35:04.525Z,972.76
2017-08-12T11:36:14.806Z,972.79
2017-08-12T11:37:24.774Z,972.73
2017-08-12T11:38:35.057Z,972.72
2017-08-12T11:39:45.339Z,972.73
2017-08-12T11:40:55.626Z,972.72
2017-08-12T11:42:05.600Z,972.69
2017-08-12T11:43:15.886Z,972.65
2017-08-12T11:44:25.854Z,972.65
2017-08-12T11:45:35.820Z,972.58
2017-08-12T11:46:46.102Z,972.56
2017-08-12T11:47:56.073Z,972.55
2017-08-12T11:49:05.733Z,972.5
2017-08-12T11:50:15.699Z,972.55
2017-08-12T11:51:25.668Z,972.53
2017-08-12T11:52:35.636Z,972.55
2017-08-12T11:53:45.923Z,972.5
2017-08-12T11:54:56.201Z,972.49
2017-08-12T11:56:06.201Z,972.51
2017-08-12T11:57:16.172Z,972.5
2017-08-12T11:58:26.456Z,972.61
2017-08-12T11:59:36.421Z,972.58
2017-08-12T12:02:04.290Z,972.66
2017-08-12T12:03:14.253Z,972.63
2017-08-12T12:04:24.539Z,972.61
2017-08-12T12:05:34.818Z,972.41
2017-08-12T12:06:44.794Z,972.4
2017-08-12T12:07:55.077Z,972.48
2017-08-12T12:09:05.045Z,972.55
2017-08-12T12:10:15.328Z,972.54
2017-08-12T12:11:25.611Z,972.55
2017-08-12T12:12:35.934Z,972.55
2017-08-12T12:13:45.904Z,972.56
2017-08-12T12:14:56.203Z,972.53
2017-08-12T12:16:05.856Z,972.4
2017-08-12T12:17:15.831Z,972.29
2017-08-12T12:18:25.171Z,972.28
2017-08-12T12:19:35.142Z,972.28
2017-08-12T12:20:45.111Z,972.35
2017-08-12T12:21:55.081Z,972.63
2017-08-12T12:23:05.368Z,972.57
2017-08-12T12:24:15.648Z,972.4
2017-08-12T12:25:25.940Z,972.19
2017-08-12T12:26:35.910Z,972.2
2017-08-12T12:27:45.566Z,972.11
2017-08-12T12:28:55.852Z,972.14
2017-08-12T12:30:06.137Z,972.13
2017-08-12T12:31:16.423Z,972.15
2017-08-12T12:32:26.392Z,972.17
2017-08-12T12:33:38.376Z,972.14
2017-08-12T12:34:48.345Z,972.1
2017-08-12T12:35:58.635Z,972.06
2017-08-12T12:37:08.607Z,972.06
2017-08-12T12:38:18.260Z,972.08
2017-08-12T12:39:28.225Z,972.16
2017-08-12T12:40:38.195Z,972.08
2017-08-12T12:41:47.847Z,972.11
2017-08-12T12:42:57.184Z,971.89
2017-08-12T12:44:07.472Z,971.85
2017-08-12T12:45:17.753Z,971.89
2017-08-12T12:46:28.036Z,971.88
2017-08-12T12:47:38.004Z,971.95
2017-08-12T12:48:48.288Z,971.94
2017-08-12T12:49:58.254Z,972.1
2017-08-12T12:51:07.906Z,972.43
2017-08-12T12:52:18.188Z,972.22
2017-08-12T12:53:28.478Z,972.27
2017-08-12T12:54:38.135Z,972.24
2017-08-12T12:55:48.415Z,971.88
2017-08-12T12:56:58.696Z,971.83
2017-08-12T12:58:08.977Z,971.91
2017-08-12T12:59:18.950Z,972.06
2017-08-12T13:00:28.914Z,971.93
2017-08-12T13:01:38.885Z,971.89
2017-08-12T13:02:49.169Z,972.48
2017-08-12T13:03:59.452Z,972.24
2017-08-12T13:05:09.426Z,971.97
2017-08-12T13:06:19.709Z,971.75
2017-08-12T13:07:29.991Z,971.76
2017-08-12T13:08:40.272Z,971.73
2017-08-12T13:09:50.554Z,971.82
2017-08-12T13:11:00.840Z,971.76
2017-08-12T13:12:10.812Z,971.8
2017-08-12T13:13:21.107Z,972.21
2017-08-12T13:14:31.392Z,971.77
2017-08-12T13:15:41.673Z,971.9
2017-08-12T13:16:51.953Z,971.85
2017-08-12T13:18:02.238Z,971.85
2017-08-12T13:19:11.578Z,971.97
2017-08-12T13:20:21.545Z,971.85
2017-08-12T13:21:31.838Z,972.05
2017-08-12T13:22:41.803Z,972.13
2017-08-12T13:23:51.772Z,972.07
2017-08-12T13:25:02.070Z,972.01
2017-08-12T13:26:12.036Z,971.85
2017-08-12T13:27:21.691Z,972.15
2017-08-12T13:28:31.654Z,971.66
2017-08-12T13:29:41.623Z,972.15
2017-08-12T13:30:51.911Z,972.09
2017-08-12T13:32:02.195Z,971.78
2017-08-12T13:33:12.485Z,972.19
2017-08-12T13:34:22.782Z,971.92
2017-08-12T13:35:32.750Z,972.02
2017-08-12T13:36:42.739Z,971.83
2017-08-12T13:37:53.029Z,971.69
2017-08-12T13:39:03.337Z,971.69
2017-08-12T13:40:13.621Z,971.68
2017-08-12T13:41:23.917Z,971.86
2017-08-12T13:42:34.209Z,971.45
2017-08-12T13:43:44.496Z,971.57
2017-08-12T13:44:54.790Z,971.87
2017-08-12T13:46:05.073Z,971.66
2017-08-12T13:47:15.042Z,971.58
2017-08-12T13:48:25.327Z,971.7
2017-08-12T13:49:35.297Z,971.7
2017-08-12T13:50:45.586Z,971.65
2017-08-12T13:51:55.243Z,971.57
2017-08-12T13:53:05.219Z,972.15
2017-08-12T13:54:15.509Z,971.54
2017-08-12T13:55:25.163Z,971.51
2017-08-12T13:56:35.136Z,971.43
2017-08-12T13:57:45.111Z,971.33
2017-08-12T13:58:55.397Z,971.43
2017-08-12T14:00:05.679Z,971.91
2017-08-12T14:01:15.972Z,971.8
2017-08-12T14:02:25.953Z,971.67
2017-08-12T14:03:35.615Z,971.63
2017-08-12T14:04:45.589Z,971.66
2017-08-12T14:05:55.874Z,971.81
2017-08-12T14:07:07.741Z,971.68
2017-08-12T14:08:17.740Z,971.75
2017-08-12T14:09:27.718Z,971.72
2017-08-12T14:10:38.013Z,971.75
2017-08-12T14:11:48.299Z,971.55
2017-08-12T14:12:57.963Z,971.29
2017-08-12T14:14:08.247Z,971.37
2017-08-12T14:15:18.532Z,971.66
2017-08-12T14:16:28.507Z,971.62
2017-08-12T14:17:38.496Z,971.61
2017-08-12T14:18:48.462Z,971.3
2017-08-12T14:19:58.434Z,971.72
2017-08-12T14:21:08.410Z,971.47
2017-08-12T14:22:18.389Z,971.88
2017-08-12T14:23:28.357Z,971.51
2017-08-12T14:24:38.643Z,971.28
2017-08-12T14:25:48.928Z,971.36
2017-08-12T14:26:58.899Z,971.19
2017-08-12T14:28:09.184Z,971.35
2017-08-12T14:29:19.469Z,971.14
2017-08-12T14:30:29.751Z,971.35
2017-08-12T14:31:40.034Z,971.07
2017-08-12T14:32:50.315Z,971.27
2017-08-12T14:34:00.288Z,970.99
2017-08-12T14:35:10.573Z,971.22
2017-08-12T14:36:20.859Z,971.21
2017-08-12T14:37:31.147Z,971.09
2017-08-12T14:38:41.436Z,971.46
2017-08-12T14:39:51.098Z,971.07